Have a Safe July 4th! 

Flight Track Log - Related Links

Times and Time Zones

All times are in EDT time to prevent confusion due to time zone crossing. See the FDX1198 flight status page for this flight to view local times or setup timezone preferences in your user account.

Time Position Orientation Groundspeed Altitude Reporting Facility
EDT Latitude Longitude Course Direction KTS MPH feet Rate Location/Type
Fri 04:16:21 AM 32.9610 -97.3160 177° South 157 181 3,200  Level FlightAware ADS-B
Fri 04:16:42 AM 32.9450 -97.3150 177° South 182 209 4,000 2,182 Climbing FlightAware ADS-B
Fri 04:16:54 AM 32.9330 -97.3140 176° South 201 231 4,400 2,167 Climbing FlightAware ADS-B
Fri 04:17:18 AM 32.9090 -97.3130 178° South 234 269 5,300 2,286 Climbing FlightAware ADS-B
Fri 04:17:36 AM 32.8870 -97.3100 173° South 254 292 6,000 2,357 Climbing FlightAware ADS-B
Fri 04:17:46 AM 32.8770 -97.3030 150° Southeast 268 308 6,400 2,571 Climbing FlightAware ADS-B
Fri 04:17:50 AM 32.8730 -97.2990 140° Southeast 272 313 6,600 3,000 Climbing FlightAware ADS-B
Fri 04:17:58 AM 32.8680 -97.2900 123° Southeast 276 318 7,000 3,375 Climbing FlightAware ADS-B
Fri 04:18:06 AM 32.8610 -97.2790 127° Southeast 280 322 7,500 3,103 Climbing FlightAware ADS-B
Fri 04:18:27 AM 32.8500 -97.2510 115° Southeast 287 330 8,500 3,000 Climbing FlightAware ADS-B
Fri 04:18:42 AM 32.8410 -97.2290 116° Southeast 295 339 9,300 2,681 Climbing FlightAware ADS-B
Fri 04:19:14 AM 32.8220 -97.1780 114° Southeast 320 368 10,600 2,000 Climbing FlightAware ADS-B
Fri 04:19:51 AM 32.7990 -97.1160 114° Southeast 359 413 11,600 1,667 Climbing FlightAware ADS-B
Fri 04:20:26 AM 32.7740 -97.0470 113° Southeast 393 452 12,600 2,000 Climbing FlightAware ADS-B
Fri 04:21:03 AM 32.7470 -96.9750 114° Southeast 408 470 14,000 2,400 Climbing FlightAware ADS-B
Fri 04:21:36 AM 32.7200 -96.9040 114° Southeast 417 480 15,400 2,597 Climbing FlightAware ADS-B
Fri 04:22:10 AM 32.6940 -96.8320 113° Southeast 419 482 16,900 2,435 Climbing FlightAware ADS-B
Fri 04:22:45 AM 32.6660 -96.7600 115° Southeast 427 491 18,200 2,057 Climbing FlightAware ADS-B
Fri 04:23:20 AM 32.6370 -96.6820 114° Southeast 436 502 19,300 1,909 Climbing FlightAware ADS-B
Fri 04:23:29 AM 32.6299 -96.6621 113° Southeast 437 503 19,600 2,000 Climbing FlightAware ADS-B
Fri 04:24:02 AM 32.6027 -96.5910 114° Southeast 445 512 20,700 1,926 Climbing FlightAware ADS-B
Fri 04:24:50 AM 32.5619 -96.4831 114° Southeast 453 521 22,200 1,975 Climbing FlightAware ADS-B
Fri 04:25:21 AM 32.5344 -96.4098 114° Southeast 459 528 23,300 1,935 Climbing FlightAware ADS-B
Fri 04:25:52 AM 32.5075 -96.3383 114° Southeast 466 536 24,200 1,574 Climbing FlightAware ADS-B
Fri 04:26:22 AM 32.4804 -96.2678 114° Southeast 476 548 24,900 1,433 Climbing FlightAware ADS-B
Fri 04:26:59 AM 32.4469 -96.1786 114° Southeast 483 556 25,800 1,655 Climbing FlightAware ADS-B
Fri 04:27:49 AM 32.4004 -96.0583 115° Southeast 497 572 27,300 1,663 Climbing FlightAware ADS-B
Fri 04:28:22 AM 32.3689 -95.9757 114° Southeast 506 582 28,100 1,630 Climbing FlightAware ADS-B
Fri 04:29:10 AM 32.3210 -95.8510 114° Southeast 514 592 29,500 1,737 Climbing FlightAware ADS-B
Fri 04:29:38 AM 32.2935 -95.7790 114° Southeast 518 596 30,300 1,714 Climbing FlightAware ADS-B
Fri 04:30:20 AM 32.2520 -95.6700 114° Southeast 522 601 31,500 1,595 Climbing FlightAware ADS-B
Fri 04:30:57 AM 32.2150 -95.5760 115° Southeast 529 609 32,400 1,625 Climbing FlightAware ADS-B
Fri 04:31:08 AM 32.2031 -95.5449 114° Southeast 529 609 32,800 2,160 Climbing FlightAware ADS-B
Fri 04:31:47 AM 32.1640 -95.4455 115° Southeast 528 608 34,200 2,028 Climbing FlightAware ADS-B
Fri 04:32:19 AM 32.1319 -95.3628 115° Southeast 522 601 35,200 1,432 Climbing FlightAware ADS-B
Fri 04:33:15 AM 32.0746 -95.2164 115° Southeast 533 613 36,300 1,256 Climbing FlightAware ADS-B
Fri 04:33:45 AM 32.0434 -95.1372 115° Southeast 535 616 37,000 689 Climbing FlightAware ADS-B
Fri 04:34:16 AM 32.0107 -95.0520 114° Southeast 538 619 37,000  Level FlightAware ADS-B
Fri 04:34:47 AM 31.9785 -94.9698 115° Southeast 537 618 37,000  Level FlightAware ADS-B
Fri 04:35:18 AM 31.9463 -94.8903 115° Southeast 536 617 37,000  Level FlightAware ADS-B
Fri 04:36:01 AM 31.9006 -94.7744 115° Southeast 535 616 37,000  Level FlightAware ADS-B
Fri 04:36:33 AM 31.8671 -94.6902 115° Southeast 534 615 37,000  Level FlightAware ADS-B
Fri 04:37:10 AM 31.8289 -94.5933 115° Southeast 533 613 37,000  Level FlightAware ADS-B
Fri 04:37:41 AM 31.7964 -94.5121 115° Southeast 532 612 37,000  Level FlightAware ADS-B
Fri 04:38:17 AM 31.7591 -94.4207 116° Southeast 531 611 37,000  Level FlightAware ADS-B
Fri 04:38:47 AM 31.7276 -94.3399 115° Southeast 530 610 37,000  Level FlightAware ADS-B
Fri 04:39:17 AM 31.6957 -94.2618 116° Southeast 531 611 37,000  Level FlightAware ADS-B
Fri 04:39:48 AM 31.6640 -94.1837 115° Southeast 531 611 37,000  Level FlightAware ADS-B
Fri 04:40:18 AM 31.6323 -94.1055 115° Southeast 532 612 37,000  Level FlightAware ADS-B
Fri 04:40:52 AM 31.5959 -94.0145 115° Southeast 532 612 37,000  Level FlightAware ADS-B
Fri 04:41:23 AM 31.5631 -93.9338 115° Southeast 532 612 37,000  Level FlightAware ADS-B
Fri 04:41:54 AM 31.5309 -93.8531 115° Southeast 532 612 37,000  Level FlightAware ADS-B
Fri 04:42:24 AM 31.4987 -93.7752 116° Southeast 533 613 37,000  Level FlightAware ADS-B
Fri 04:42:54 AM 31.4667 -93.6971 116° Southeast 533 613 37,000  Level FlightAware ADS-B
Fri 04:43:25 AM 31.4344 -93.6190 116° Southeast 533 613 37,000  Level FlightAware ADS-B
Fri 04:43:55 AM 31.4023 -93.5410 116° Southeast 533 613 37,000  Level FlightAware ADS-B
Fri 04:44:50 AM 31.3430 -93.3953 115° Southeast 534 615 37,000  Level FlightAware ADS-B
Fri 04:45:27 AM 31.3035 -93.2991 116° Southeast 534 615 37,000  Level FlightAware ADS-B
Fri 04:46:00 AM 31.2682 -93.2160 116° Southeast 534 615 37,000  Level FlightAware ADS-B
Fri 04:46:30 AM 31.2351 -93.1357 116° Southeast 534 615 37,000  Level FlightAware ADS-B
Fri 04:47:05 AM 31.1982 -93.0473 116° Southeast 534 615 37,000  Level FlightAware ADS-B
Fri 04:47:36 AM 31.1645 -92.9643 115° Southeast 534 615 37,000  Level FlightAware ADS-B
Fri 04:48:07 AM 31.1294 -92.8847 117° Southeast 534 615 37,000  Level FlightAware ADS-B
Fri 04:48:37 AM 31.0952 -92.8083 118° Southeast 534 615 37,000  Level FlightAware ADS-B
Fri 04:49:52 AM 31.0101 -92.6167 117° Southeast 534 615 37,000  Level FlightAware ADS-B
Fri 04:50:22 AM 30.9760 -92.5401 117° Southeast 534 615 37,000  Level FlightAware ADS-B
Fri 04:50:53 AM 30.9413 -92.4636 118° Southeast 534 615 37,000  Level FlightAware ADS-B
Fri 04:52:05 AM 30.8587 -92.2774 117° Southeast 534 615 37,000 -760 Level FlightAware ADS-B
Fri 04:53:23 AM 30.7856 -92.1144 117° Southeast 533 613 35,100 -2,883 Descending Houston Center
Fri 04:59:14 AM 30.4040 -91.2770 117° Southeast 17,100 -3,124 Descending FlightAware ADS-B
Fri 05:01:04 AM 30.2980 -91.0470 118° Southeast 413 475 11,100 -2,473 Descending FlightAware ADS-B
Fri 05:01:42 AM 30.2710 -90.9860 117° Southeast 393 452 11,000 -72 Descending FlightAware ADS-B
Fri 05:02:27 AM 30.2370 -90.9150 119° Southeast 353 406 11,000 -692 Level FlightAware ADS-B
Fri 05:03:00 AM 30.2100 -90.8570 118° Southeast 294 338 10,100 -1,750 Descending FlightAware ADS-B
Fri 05:03:15 AM 30.1990 -90.8350 120° Southeast 289 333 9,600 -2,143 Descending FlightAware ADS-B
Fri 05:03:42 AM 30.1830 -90.8010 119° Southeast 271 312 8,600 -1,154 Descending FlightAware ADS-B
Fri 05:04:07 AM 30.1710 -90.7740 117° Southeast 271 312 8,600 -2,250 Level FlightAware ADS-B
Fri 05:04:22 AM 30.1590 -90.7490 119° Southeast 279 321 7,100 -2,250 Descending FlightAware ADS-B
Fri 05:04:47 AM 30.1460 -90.7210 118° Southeast 279 321 7,100 -1,294 Level FlightAware ADS-B
Fri 05:05:13 AM 30.1290 -90.6840 118° Southeast 273 314 6,000 -1,964 Descending FlightAware ADS-B
Fri 05:05:42 AM 30.1130 -90.6500 119° Southeast 263 303 5,300 -1,375 Descending FlightAware ADS-B
Fri 05:06:01 AM 30.1030 -90.6290 119° Southeast 261 300 4,900 -1,227 Descending FlightAware ADS-B
Fri 05:06:26 AM 30.0870 -90.5930 117° Southeast 253 291 4,400 -800 Descending FlightAware ADS-B
Fri 05:06:46 AM 30.0780 -90.5740 119° Southeast 239 275 4,300 -450 Descending FlightAware ADS-B
Fri 05:07:06 AM 30.0660 -90.5490 119° Southeast 221 254 4,100 -400 Descending FlightAware ADS-B
Fri 05:07:16 AM 30.0610 -90.5390 120° Southeast 214 246 4,100 -400 Level FlightAware ADS-B
Fri 05:07:36 AM 30.0540 -90.5190 112° Southeast 207 238 3,900 -800 Descending FlightAware ADS-B
Fri 05:07:46 AM 30.0520 -90.5070 101° East 210 242 3,700 -1,029 Descending FlightAware ADS-B
Fri 05:08:11 AM 30.0470 -90.4800 102° East 208 239 3,300 -1,067 Descending FlightAware ADS-B
Fri 05:08:31 AM 30.0420 -90.4580 105° East 205 236 2,900 -1,200 Descending FlightAware ADS-B
Fri 05:08:51 AM 30.0380 -90.4380 103° East 199 229 2,500 -1,050 Descending FlightAware ADS-B
Fri 05:09:11 AM 30.0320 -90.4180 109° East 188 216 2,200 -900 Descending FlightAware ADS-B
Fri 05:09:31 AM 30.0260 -90.4030 115° Southeast 173 199 1,900 -960 Descending FlightAware ADS-B
Fri 05:09:36 AM 30.0240 -90.3960 108° East 167 192 1,800 -800 Descending FlightAware ADS-B
Fri 05:10:01 AM 30.0200 -90.3790 105° East 150 173 1,500 -667 Descending FlightAware ADS-B
Fri 05:10:21 AM 30.0160 -90.3630 106° East 132 152 1,300 -600 Descending FlightAware ADS-B
Fri 05:10:41 AM 30.0130 -90.3490 104° East 118 136 1,100 -600 Descending FlightAware ADS-B
Fri 05:11:01 AM 30.0100 -90.3380 107° East 116 133 900 -409 Descending FlightAware ADS-B
Fri 05:11:25 AM 30.0080 -90.3290 104° East 116 133 800 -533 Descending FlightAware ADS-B
Fri 05:11:46 AM 30.0030 -90.3100 107° East 115 132 500 -435 Descending FlightAware ADS-B
Fri 05:12:34 AM 29.9980 -90.2860 104° East 112 129 300 -250 Descending FlightAware ADS-B
Fri 05:19:00 AM 29.9933 -90.2590 115° Southeast  Level Estimated
Fri 05:20:00 AM 29.9933 -90.2590 115° Southeast  Level Estimated
Fri 05:21:00 AM 29.9933 -90.2590 115° Southeast  Level Estimated
Fri 05:22:00 AM 29.9933 -90.2590 115° Southeast  Level Estimated

Login

Don't have an account? Register now (free) for customized features, flight alerts, and more!